Lake Almanor, California
Current Conditions -  °F | °C
As of 9:52 AM on Saturday 20 Dec 2014 (Local Time) from KBLU Reporting Station
Light Rain Light Rain  
Wind Chill: 32°   Ceiling: 300
Heat Index: 38°   Visibility: 0.25mi
Dew Point: 36°   Wind: 8mph
Humidity: 93%   Direction: 170°S
Pressure: 30.22"   Gusts: NA
Location:  39.56°N, 120.93°W
Report Text: KBLU 201752Z AUTO 17007KT 1/4SM -RA FG VV003 03/02 A3022 RMK AO2 RAB20UPB30E39 SLP223 P0000 60008 T00330022 10039 20028 53019
Loading
Personal Weather Stations






























Interactive Weather Map New forecast layout! Learn more

10-Day Weather Forecast

Advertisements
Track Severe Weather on mobile